Time;durP1;ratioP1;P1;durP2;ratioP2;P2;SDS_P1;SDS_P2;PMS_P1;PMS_P2;Temp;Humidity;BMP_temperature;BMP_pressure;BME280_temperature;BME280_humidity;BME280_pressure;Samples;Min_cycle;Max_cycle;Signal;HPM_P1;HPM_P2
2023/05/08 00:00:20;;;;;;;113.82;61.50;;;13.60;99.90;;;;;;5042682;28;20041;-69
2023/05/08 00:02:45;;;;;;;107.63;59.20;;;13.70;99.90;;;;;;5043034;28;20186;-70
2023/05/08 00:05:11;;;;;;;98.30;55.83;;;13.60;99.90;;;;;;5031234;28;20042;-70
2023/05/08 00:07:37;;;;;;;94.28;53.72;;;13.60;99.90;;;;;;5031455;28;20028;-70
2023/05/08 00:10:04;;;;;;;92.70;55.97;;;13.60;99.90;;;;;;5031965;28;20017;-71
2023/05/08 00:12:30;;;;;;;87.22;51.67;;;13.60;99.90;;;;;;5031950;28;20036;-69
2023/05/08 00:14:55;;;;;;;89.93;54.38;;;13.50;99.90;;;;;;5031694;28;20034;-70
2023/05/08 00:17:21;;;;;;;87.22;52.17;;;13.50;99.90;;;;;;5029959;28;20113;-70
2023/05/08 00:19:47;;;;;;;85.60;51.53;;;13.40;99.90;;;;;;5034101;28;20026;-70
2023/05/08 00:22:13;;;;;;;90.13;52.33;;;13.40;99.90;;;;;;5045110;28;20029;-70
2023/05/08 00:24:38;;;;;;;88.43;51.83;;;13.40;99.90;;;;;;5038265;28;20032;-70
2023/05/08 00:27:04;;;;;;;91.95;53.05;;;13.30;99.90;;;;;;5047510;28;20418;-70
2023/05/08 00:29:30;;;;;;;90.65;53.42;;;13.30;99.90;;;;;;5039814;28;20125;-70
2023/05/08 00:31:55;;;;;;;94.53;53.30;;;13.30;99.90;;;;;;5052268;28;20068;-70
2023/05/08 00:34:21;;;;;;;93.00;54.63;;;13.30;99.90;;;;;;5041680;28;20060;-70
2023/05/08 00:36:46;;;;;;;93.15;53.17;;;13.30;99.90;;;;;;5045321;28;20083;-69
2023/05/08 00:39:12;;;;;;;110.85;57.72;;;13.20;99.90;;;;;;5048609;28;20040;-69
2023/05/08 00:41:37;;;;;;;124.63;68.53;;;13.30;99.90;;;;;;5038663;28;20095;-70
2023/05/08 00:44:03;;;;;;;121.35;64.85;;;13.30;99.90;;;;;;5050212;28;20027;-70
2023/05/08 00:46:29;;;;;;;126.78;65.60;;;13.30;99.90;;;;;;5047374;28;20040;-70
2023/05/08 00:48:55;;;;;;;107.90;60.25;;;13.40;99.90;;;;;;5034267;28;20038;-70
2023/05/08 00:51:22;;;;;;;106.78;59.42;;;13.40;99.90;;;;;;5049229;28;20021;-69
2023/05/08 00:53:48;;;;;;;112.20;61.50;;;13.40;99.90;;;;;;5038369;28;20549;-70
2023/05/08 01:37:43;;;;;;;127.97;65.63;;;13.40;99.90;;;;;;5030052;28;20536;-70
2023/05/08 01:40:33;;;;;;;129.35;65.78;;;13.50;99.90;;;;;;5033788;28;20064;-70
2023/05/08 01:43:23;;;;;;;123.82;67.20;;;13.50;99.90;;;;;;5039358;28;20030;-70
2023/05/08 01:45:51;;;;;;;126.80;64.63;;;13.50;99.90;;;;;;5024775;28;20106;-69
2023/05/08 01:48:37;;;;;;;127.75;64.25;;;13.60;99.90;;;;;;5032937;28;20044;-69
2023/05/08 01:51:13;;;;;;;117.55;63.47;;;13.60;99.90;;;;;;5031761;28;20608;-70
2023/05/08 01:53:43;;;;;;;112.05;60.15;;;13.70;99.90;;;;;;5034242;28;20037;-70
2023/05/08 01:56:16;;;;;;;126.57;66.80;;;13.70;99.90;;;;;;5033768;28;20030;-70
2023/05/08 01:58:43;;;;;;;115.40;63.33;;;13.80;99.90;;;;;;5030528;28;20025;-71
2023/05/08 02:01:11;;;;;;;113.57;63.42;;;13.90;99.90;;;;;;5023114;28;20073;-70
2023/05/08 02:03:38;;;;;;;112.68;61.47;;;13.90;99.90;;;;;;5030091;28;20025;-70
2023/05/08 02:06:06;;;;;;;102.85;60.22;;;14.00;99.90;;;;;;5045658;28;20033;-69
2023/05/08 02:08:33;;;;;;;101.25;60.10;;;14.00;99.90;;;;;;5033492;28;20106;-69
2023/05/08 02:11:00;;;;;;;98.07;57.38;;;14.00;99.90;;;;;;5033913;28;20039;-70
2023/05/08 02:13:28;;;;;;;95.22;58.53;;;14.10;99.90;;;;;;5033810;28;20034;-70
2023/05/08 02:15:55;;;;;;;109.20;61.13;;;14.10;99.90;;;;;;5033695;28;20124;-70
2023/05/08 02:18:22;;;;;;;104.68;61.63;;;14.20;99.90;;;;;;5033740;28;20117;-70
2023/05/08 02:20:53;;;;;;;107.88;59.97;;;14.20;99.90;;;;;;5033668;28;20128;-70
2023/05/08 02:23:21;;;;;;;98.53;59.65;;;14.20;99.90;;;;;;5032437;28;20392;-70
2023/05/08 02:25:48;;;;;;;108.78;59.28;;;14.20;99.90;;;;;;5033352;28;20116;-70
2023/05/08 02:28:18;;;;;;;102.70;58.03;;;14.30;99.90;;;;;;5024336;28;20100;-70
2023/05/08 02:30:44;;;;;;;98.75;56.53;;;14.30;99.90;;;;;;5013298;28;20546;-71
2023/05/08 02:33:12;;;;;;;103.78;59.20;;;14.30;99.90;;;;;;5013272;28;20026;-71
2023/05/08 02:35:39;;;;;;;110.88;60.42;;;14.30;99.90;;;;;;5012911;28;20052;-71
2023/05/08 02:38:09;;;;;;;109.68;61.83;;;14.30;99.90;;;;;;5033063;28;20397;-70
2023/05/08 02:40:37;;;;;;;110.97;63.80;;;14.20;99.90;;;;;;5032895;28;20045;-71
2023/05/08 02:43:03;;;;;;;116.18;62.70;;;14.20;99.90;;;;;;5032903;28;20021;-70
2023/05/08 02:45:35;;;;;;;105.20;60.50;;;14.10;99.90;;;;;;5033127;28;20048;-70
2023/05/08 02:48:27;;;;;;;112.60;63.83;;;14.10;99.90;;;;;;5031754;28;20025;-70
2023/05/08 02:51:03;;;;;;;117.07;62.92;;;14.00;99.90;;;;;;5033156;28;20030;-69
2023/05/08 02:53:35;;;;;;;107.10;58.75;;;14.00;99.90;;;;;;5032755;28;20041;-69
2023/05/08 02:56:20;;;;;;;114.47;64.10;;;14.00;99.90;;;;;;5033054;28;20049;-69
2023/05/08 02:58:55;;;;;;;108.50;59.10;;;14.00;99.90;;;;;;5029035;28;20109;-68
2023/05/08 03:01:40;;;;;;;106.30;58.60;;;14.00;99.90;;;;;;5036097;28;20045;-68
2023/05/08 03:04:09;;;;;;;103.40;57.95;;;14.00;99.90;;;;;;5035795;28;20176;-69
2023/05/08 03:06:43;;;;;;;101.13;57.72;;;13.90;99.90;;;;;;5032690;28;20060;-68
2023/05/08 03:09:19;;;;;;;101.95;59.83;;;13.90;99.90;;;;;;5032681;28;20032;-68
2023/05/08 03:11:48;;;;;;;106.57;59.55;;;13.90;99.90;;;;;;5033034;28;20056;-68
2023/05/08 03:14:21;;;;;;;115.63;62.80;;;13.80;99.90;;;;;;5032600;28;20061;-68
2023/05/08 03:16:49;;;;;;;123.20;69.03;;;13.80;99.90;;;;;;5024582;28;20382;-68
2023/05/08 03:19:28;;;;;;;113.20;62.35;;;13.80;99.90;;;;;;5012233;28;20555;-68
2023/05/08 03:21:56;;;;;;;119.57;62.55;;;13.70;99.90;;;;;;5012821;28;20022;-68
2023/05/08 03:24:24;;;;;;;116.75;63.40;;;13.70;99.90;;;;;;5012619;28;20030;-69
2023/05/08 03:26:50;;;;;;;114.25;63.78;;;13.70;99.90;;;;;;5012749;28;20037;-69
2023/05/08 03:29:17;;;;;;;120.45;64.30;;;13.70;99.90;;;;;;5041664;28;20106;-69
2023/05/08 03:31:43;;;;;;;123.03;65.22;;;13.70;99.90;;;;;;5032261;28;20028;-70
2023/05/08 03:34:12;;;;;;;111.28;62.17;;;13.80;99.90;;;;;;5032605;28;20107;-68
2023/05/08 03:36:38;;;;;;;120.53;65.35;;;13.90;99.90;;;;;;5032084;28;20378;-69
2023/05/08 03:39:04;;;;;;;114.05;62.45;;;13.90;99.90;;;;;;5032303;28;20382;-69
2023/05/08 03:41:30;;;;;;;117.85;64.53;;;14.00;99.90;;;;;;5032330;28;20030;-68
2023/05/08 03:43:57;;;;;;;122.22;63.08;;;14.00;99.90;;;;;;5032350;28;20092;-69
2023/05/08 03:46:24;;;;;;;111.30;63.47;;;14.10;99.90;;;;;;5030855;28;20029;-68
2023/05/08 03:48:52;;;;;;;110.70;63.92;;;14.20;99.90;;;;;;5031975;28;20033;-69
2023/05/08 03:51:18;;;;;;;114.97;64.38;;;14.30;99.90;;;;;;5021632;28;20085;-70
2023/05/08 03:53:43;;;;;;;112.40;64.63;;;14.30;99.90;;;;;;5012541;28;20025;-68
2023/05/08 03:56:09;;;;;;;111.38;62.58;;;14.40;99.90;;;;;;5012133;28;20080;-69
2023/05/08 03:58:47;;;;;;;103.07;62.28;;;14.40;99.90;;;;;;5012354;28;20037;-69
2023/05/08 04:01:20;;;;;;;106.93;61.95;;;14.50;99.90;;;;;;5016339;28;20050;-69
2023/05/08 04:04:00;;;;;;;103.55;60.22;;;14.50;99.90;;;;;;5036595;28;20038;-70
2023/05/08 04:06:30;;;;;;;103.53;60.33;;;14.60;99.90;;;;;;5034743;28;20061;-69
2023/05/08 04:09:23;;;;;;;102.57;60.38;;;14.60;99.90;;;;;;5036091;28;20072;-69
2023/05/08 04:12:01;;;;;;;108.03;60.40;;;14.60;99.90;;;;;;5030421;28;20557;-69
2023/05/08 04:14:33;;;;;;;103.28;60.28;;;14.60;99.90;;;;;;5017616;28;20488;-69
2023/05/08 04:17:06;;;;;;;97.32;57.20;;;14.60;99.90;;;;;;5035851;28;20029;-69
2023/05/08 04:19:38;;;;;;;104.93;59.08;;;14.60;99.90;;;;;;5035765;28;20033;-68
2023/05/08 04:22:06;;;;;;;99.03;57.35;;;14.60;99.90;;;;;;5035858;28;20068;-69
2023/05/08 04:24:36;;;;;;;101.82;57.97;;;14.70;99.90;;;;;;5034540;28;20373;-69
2023/05/08 04:27:02;;;;;;;103.28;59.75;;;14.70;99.90;;;;;;5035777;28;20025;-68
2023/05/08 04:29:28;;;;;;;103.15;59.53;;;14.70;99.90;;;;;;5035729;28;20033;-68
2023/05/08 04:31:55;;;;;;;99.03;59.10;;;14.70;99.90;;;;;;5034583;28;20137;-69
2023/05/08 04:34:22;;;;;;;104.30;60.85;;;14.70;99.90;;;;;;5035379;28;20025;-70
2023/05/08 04:36:47;;;;;;;90.82;56.67;;;14.70;99.90;;;;;;5035499;28;20045;-70
2023/05/08 04:39:13;;;;;;;104.82;61.65;;;14.70;99.90;;;;;;5034265;28;20065;-69
2023/05/08 04:41:39;;;;;;;103.78;58.38;;;14.70;99.90;;;;;;5029646;28;20087;-69
2023/05/08 04:44:05;;;;;;;98.03;57.08;;;14.70;99.90;;;;;;5015638;28;20417;-69
2023/05/08 04:46:30;;;;;;;100.57;59.13;;;14.80;99.90;;;;;;5015788;28;20030;-69
2023/05/08 04:48:56;;;;;;;100.85;59.30;;;14.80;99.90;;;;;;5015387;28;20113;-69
2023/05/08 04:51:21;;;;;;;106.32;62.15;;;14.90;99.90;;;;;;5015574;28;20037;-69
2023/05/08 04:53:47;;;;;;;98.85;56.97;;;14.90;99.90;;;;;;5015711;28;20113;-68
2023/05/08 04:56:12;;;;;;;92.28;56.42;;;15.00;99.90;;;;;;5015435;28;20034;-69
2023/05/08 04:58:38;;;;;;;91.25;56.13;;;15.00;99.90;;;;;;5016361;28;20029;-69
2023/05/08 05:01:04;;;;;;;94.35;55.72;;;15.10;99.90;;;;;;5028534;28;20045;-69
2023/05/08 05:03:29;;;;;;;95.45;56.38;;;15.10;99.90;;;;;;5028895;28;20044;-69
2023/05/08 05:05:59;;;;;;;89.85;54.13;;;15.20;99.90;;;;;;5054984;28;20380;-69
2023/05/08 05:08:25;;;;;;;85.90;53.00;;;15.20;99.90;;;;;;5054843;28;20115;-69
2023/05/08 05:10:51;;;;;;;82.22;53.42;;;15.20;99.90;;;;;;5053893;28;20036;-70
2023/05/08 05:13:17;;;;;;;88.45;53.50;;;15.30;99.90;;;;;;5054742;28;20025;-69
2023/05/08 05:15:42;;;;;;;85.38;53.10;;;15.40;99.90;;;;;;5044881;28;20033;-69
2023/05/08 05:18:08;;;;;;;87.25;51.85;;;15.40;99.90;;;;;;5034257;28;20032;-69
2023/05/08 05:20:33;;;;;;;83.15;52.33;;;15.50;99.90;;;;;;5034924;28;20128;-70
2023/05/08 05:22:59;;;;;;;74.93;50.13;;;15.60;99.90;;;;;;5016245;28;20105;-70
2023/05/08 05:25:24;;;;;;;73.78;47.88;;;15.60;99.90;;;;;;5015057;28;20033;-69
2023/05/08 05:27:50;;;;;;;73.90;49.83;;;15.70;99.90;;;;;;5014650;28;20458;-69
2023/05/08 05:30:16;;;;;;;77.63;50.75;;;15.70;99.90;;;;;;5014639;28;20470;-69
2023/05/08 05:32:41;;;;;;;74.55;49.55;;;15.80;99.90;;;;;;5014107;28;20026;-69
2023/05/08 05:35:09;;;;;;;73.00;48.47;;;15.90;99.90;;;;;;5032748;28;20049;-69
2023/05/08 05:37:34;;;;;;;72.13;48.53;;;16.00;99.90;;;;;;5034248;28;20498;-70
2023/05/08 05:40:00;;;;;;;71.57;49.22;;;16.10;99.90;;;;;;5035376;28;20079;-69
2023/05/08 05:42:26;;;;;;;72.38;48.33;;;16.20;99.90;;;;;;5033926;28;20033;-69
2023/05/08 05:44:51;;;;;;;73.55;49.17;;;16.30;99.90;;;;;;5033910;28;20470;-69
2023/05/08 05:47:17;;;;;;;69.20;46.20;;;16.50;99.90;;;;;;5034315;28;20029;-70
2023/05/08 05:49:45;;;;;;;69.85;47.45;;;16.60;99.90;;;;;;5034415;28;20025;-69
2023/05/08 05:52:11;;;;;;;70.43;47.90;;;16.70;99.90;;;;;;5034304;28;20018;-70
2023/05/08 05:54:37;;;;;;;70.28;47.38;;;16.70;99.90;;;;;;5034133;28;20075;-70
2023/05/08 05:57:03;;;;;;;69.55;47.67;;;16.80;99.90;;;;;;5033902;28;20146;-69
2023/05/08 05:59:29;;;;;;;70.30;46.72;;;16.80;99.90;;;;;;5025359;28;20089;-70
2023/05/08 06:01:54;;;;;;;81.32;50.65;;;16.90;99.90;;;;;;5044108;28;20037;-70
2023/05/08 06:04:20;;;;;;;85.20;54.85;;;17.00;99.90;;;;;;5049222;28;20489;-69
2023/05/08 06:06:46;;;;;;;104.88;57.05;;;17.00;99.90;;;;;;5053675;28;20397;-69
2023/05/08 06:09:12;;;;;;;101.28;59.40;;;17.00;99.90;;;;;;5053676;28;20025;-69
2023/05/08 06:11:37;;;;;;;98.07;56.67;;;16.90;99.90;;;;;;5035134;28;20387;-70
2023/05/08 06:14:03;;;;;;;98.13;55.63;;;16.80;99.90;;;;;;5027933;28;20470;-69
2023/05/08 06:16:29;;;;;;;89.65;55.55;;;16.80;99.90;;;;;;5029514;28;20569;-70
2023/05/08 06:18:55;;;;;;;86.00;55.00;;;16.80;99.90;;;;;;5033590;28;20029;-70
2023/05/08 06:21:20;;;;;;;97.20;54.53;;;16.80;99.90;;;;;;5030477;28;20038;-71
2023/05/08 06:23:46;;;;;;;104.85;53.78;;;16.80;99.90;;;;;;5030924;28;20079;-70
2023/05/08 06:26:12;;;;;;;106.47;52.40;;;16.80;99.90;;;;;;5032677;28;20029;-70
2023/05/08 06:28:37;;;;;;;101.03;50.60;;;16.80;99.90;;;;;;5030659;28;20049;-70
2023/05/08 06:31:03;;;;;;;95.15;47.38;;;16.80;99.90;;;;;;5032819;28;20064;-71
2023/05/08 06:33:28;;;;;;;101.30;48.42;;;16.80;99.90;;;;;;5033079;28;20034;-70
2023/05/08 06:35:54;;;;;;;92.65;48.58;;;16.90;99.90;;;;;;5031895;28;20099;-70
2023/05/08 06:38:20;;;;;;;100.78;50.67;;;16.90;99.90;;;;;;5033203;28;20089;-70
2023/05/08 06:40:46;;;;;;;96.03;45.22;;;16.90;99.90;;;;;;5031802;28;20118;-70
2023/05/08 06:43:12;;;;;;;83.55;41.42;;;17.10;99.90;;;;;;5026938;28;20026;-70
2023/05/08 06:45:39;;;;;;;84.20;43.78;;;17.20;99.90;;;;;;5015621;28;20034;-71
2023/05/08 06:48:05;;;;;;;81.75;39.75;;;17.20;99.90;;;;;;5018398;28;20377;-70
2023/05/08 06:50:31;;;;;;;82.78;41.30;;;17.30;99.90;;;;;;5032938;28;20033;-71
2023/05/08 06:52:56;;;;;;;84.38;42.85;;;17.40;99.90;;;;;;5032549;28;20025;-70
2023/05/08 06:55:22;;;;;;;84.43;39.63;;;17.50;99.90;;;;;;5032663;28;20034;-70
2023/05/08 06:57:47;;;;;;;84.82;40.58;;;17.70;99.90;;;;;;5031402;28;20105;-70
2023/05/08 07:00:13;;;;;;;92.20;41.00;;;17.70;99.90;;;;;;5031733;28;20115;-70
2023/05/08 07:02:39;;;;;;;95.55;42.42;;;17.90;99.90;;;;;;5025586;28;20445;-70
2023/05/08 07:05:05;;;;;;;98.57;41.78;;;17.90;99.90;;;;;;5012979;28;20069;-70
2023/05/08 07:07:31;;;;;;;97.13;43.97;;;18.00;99.90;;;;;;5011626;28;20473;-70
2023/05/08 07:09:56;;;;;;;98.63;43.95;;;18.00;99.90;;;;;;5012625;28;20029;-71
2023/05/08 07:12:22;;;;;;;98.53;42.47;;;18.00;99.90;;;;;;5013148;28;20030;-71
2023/05/08 07:14:47;;;;;;;92.40;41.25;;;18.10;99.90;;;;;;5019226;28;20053;-71
2023/05/08 07:17:13;;;;;;;106.75;45.50;;;18.10;99.90;;;;;;5032230;28;20120;-71
2023/05/08 07:19:39;;;;;;;87.68;40.38;;;18.20;99.90;;;;;;5032483;28;20470;-70
2023/05/08 07:22:05;;;;;;;101.32;42.80;;;18.30;99.90;;;;;;5032487;28;20033;-70
2023/05/08 07:24:31;;;;;;;104.25;43.08;;;18.30;99.90;;;;;;5022667;28;20037;-70
2023/05/08 07:26:58;;;;;;;98.45;41.78;;;18.30;99.90;;;;;;5030515;28;20037;-71
2023/05/08 07:29:26;;;;;;;99.18;42.35;;;18.30;99.90;;;;;;5031949;28;20032;-71
2023/05/08 07:31:52;;;;;;;86.43;37.47;;;18.40;99.90;;;;;;5032026;28;20087;-69
2023/05/08 07:34:18;;;;;;;93.47;40.03;;;18.40;99.90;;;;;;5029922;28;20018;-70
2023/05/08 07:36:44;;;;;;;88.72;38.42;;;18.50;99.90;;;;;;5031655;28;20077;-70
2023/05/08 07:39:09;;;;;;;90.88;38.72;;;18.60;99.90;;;;;;5032211;28;20032;-70
2023/05/08 07:41:36;;;;;;;91.30;37.88;;;18.70;99.90;;;;;;5019898;28;20046;-72
2023/05/08 07:44:02;;;;;;;93.40;39.03;;;18.80;99.90;;;;;;5012496;28;20026;-69
2023/05/08 07:46:27;;;;;;;91.53;37.67;;;19.00;99.90;;;;;;5012600;28;20041;-71
2023/05/08 07:48:53;;;;;;;90.75;36.67;;;19.10;99.90;;;;;;5025494;28;20025;-71
2023/05/08 07:51:19;;;;;;;95.50;37.50;;;19.20;99.90;;;;;;5018586;28;20032;-70
2023/05/08 07:53:44;;;;;;;85.53;38.03;;;19.30;99.90;;;;;;5031471;28;20052;-71
2023/05/08 07:56:10;;;;;;;83.85;37.88;;;19.40;99.90;;;;;;5029945;28;20436;-71
2023/05/08 07:58:35;;;;;;;91.07;35.83;;;19.30;99.90;;;;;;5028167;28;20080;-70
2023/05/08 08:01:02;;;;;;;85.88;37.80;;;19.40;99.90;;;;;;5026246;28;20099;-70
2023/05/08 08:03:27;;;;;;;84.30;35.20;;;19.50;99.90;;;;;;5029225;28;20361;-72
2023/05/08 08:05:54;;;;;;;89.03;37.17;;;19.50;99.90;;;;;;5030891;28;20534;-71
2023/05/08 08:08:20;;;;;;;87.57;35.88;;;19.50;99.90;;;;;;5031731;28;20148;-71
2023/05/08 08:10:45;;;;;;;77.93;34.67;;;19.50;99.90;;;;;;5031909;28;20039;-71
2023/05/08 08:13:11;;;;;;;80.40;34.65;;;19.40;99.90;;;;;;5031682;28;20488;-71
2023/05/08 08:15:37;;;;;;;81.45;33.13;;;19.40;99.90;;;;;;5031813;28;20474;-71
2023/05/08 08:18:02;;;;;;;78.18;33.35;;;19.50;99.90;;;;;;5031834;28;20032;-71
2023/05/08 08:20:28;;;;;;;97.00;33.55;;;19.50;99.90;;;;;;5031698;28;20048;-71
2023/05/08 08:22:53;;;;;;;69.45;30.45;;;19.50;99.90;;;;;;5030958;28;20022;-71
2023/05/08 08:25:19;;;;;;;69.38;29.13;;;19.40;99.90;;;;;;5031016;28;20381;-70
2023/05/08 08:27:45;;;;;;;58.30;24.75;;;19.40;99.90;;;;;;5031536;28;20030;-70
2023/05/08 08:30:11;;;;;;;66.53;29.75;;;19.30;99.90;;;;;;5031705;28;20030;-71
2023/05/08 08:32:36;;;;;;;68.55;29.02;;;19.30;99.90;;;;;;5031678;28;20522;-71
2023/05/08 08:35:02;;;;;;;59.30;27.30;;;19.40;99.90;;;;;;5031832;28;20034;-71
2023/05/08 08:37:28;;;;;;;57.35;25.70;;;19.70;99.90;;;;;;5030294;28;20132;-70
2023/05/08 08:39:53;;;;;;;62.00;26.63;;;20.10;99.90;;;;;;5031257;28;20393;-70
2023/05/08 08:42:19;;;;;;;57.20;28.00;;;20.50;99.90;;;;;;5031280;28;20029;-72
2023/05/08 08:44:44;;;;;;;51.85;23.88;;;20.70;99.90;;;;;;5031541;28;20025;-71
2023/05/08 08:47:13;;;;;;;54.17;24.33;;;20.90;99.90;;;;;;5034779;28;20300;-70
2023/05/08 08:49:45;;;;;;;49.30;23.92;;;21.10;99.90;;;;;;5035329;28;20496;-70
2023/05/08 08:52:18;;;;;;;49.97;25.13;;;21.30;99.90;;;;;;5035170;28;20428;-71
2023/05/08 08:54:46;;;;;;;54.55;26.05;;;21.70;99.90;;;;;;5035012;28;20472;-71
2023/05/08 08:57:13;;;;;;;49.88;25.70;;;22.00;99.90;;;;;;5035151;28;20056;-71
2023/05/08 08:59:41;;;;;;;52.25;27.00;;;22.20;99.90;;;;;;5033879;28;20389;-70
2023/05/08 09:02:16;;;;;;;51.17;26.80;;;22.20;99.90;;;;;;5035396;28;20040;-70
2023/05/08 09:04:41;;;;;;;47.33;25.88;;;22.30;99.90;;;;;;5035285;28;20482;-70
2023/05/08 09:07:07;;;;;;;52.05;25.88;;;22.40;99.90;;;;;;5034836;28;20112;-71
2023/05/08 09:09:39;;;;;;;52.17;27.48;;;22.60;99.90;;;;;;5035011;28;20030;-70
2023/05/08 09:12:05;;;;;;;53.30;26.92;;;22.80;99.90;;;;;;5035353;28;20038;-71
2023/05/08 09:14:31;;;;;;;49.95;27.05;;;23.00;99.90;;;;;;5034959;28;20035;-71
2023/05/08 09:16:57;;;;;;;46.83;26.95;;;23.30;99.90;;;;;;5033708;28;20108;-71
2023/05/08 09:19:24;;;;;;;45.83;26.58;;;23.40;99.90;;;;;;5034508;28;20026;-71
2023/05/08 09:21:50;;;;;;;48.42;27.00;;;23.70;99.90;;;;;;5034205;28;20091;-72
2023/05/08 09:24:16;;;;;;;48.80;26.33;;;23.80;99.90;;;;;;5034200;28;20025;-71
2023/05/08 09:26:41;;;;;;;47.28;25.60;;;24.10;99.90;;;;;;5034492;28;20497;-71
2023/05/08 09:29:15;;;;;;;45.40;25.55;;;24.30;99.90;;;;;;5034799;28;20079;-72
2023/05/08 09:31:43;;;;;;;39.45;21.02;;;24.60;99.90;;;;;;5034631;28;20030;-72
2023/05/08 09:34:10;;;;;;;37.70;23.33;;;25.40;99.90;;;;;;5034271;28;20434;-73
2023/05/08 09:36:38;;;;;;;37.65;22.02;;;26.40;99.90;;;;;;5034141;28;20046;-72
2023/05/08 09:39:09;;;;;;;34.53;20.88;;;27.70;98.90;;;;;;5034207;28;20056;-72
2023/05/08 09:41:34;;;;;;;32.55;19.67;;;28.90;97.50;;;;;;5033303;28;20036;-73
2023/05/08 09:44:02;;;;;;;32.35;19.35;;;29.40;96.40;;;;;;5034632;28;20029;-70
2023/05/08 09:46:29;;;;;;;33.55;18.20;;;29.70;96.30;;;;;;5034239;28;20047;-70
2023/05/08 09:48:57;;;;;;;30.88;16.95;;;29.60;95.40;;;;;;5033914;28;20037;-70
2023/05/08 09:51:24;;;;;;;28.45;16.58;;;29.40;95.80;;;;;;5034373;28;20508;-72
2023/05/08 09:53:51;;;;;;;28.50;15.50;;;29.00;95.80;;;;;;5034295;28;20085;-71
2023/05/08 09:56:30;;;;;;;25.88;14.35;;;28.40;95.90;;;;;;5034220;28;20091;-72
2023/05/08 09:58:55;;;;;;;26.77;15.50;;;27.60;96.30;;;;;;5033355;28;20386;-71
2023/05/08 10:01:34;;;;;;;26.88;14.70;;;26.80;97.00;;;;;;5033511;28;20034;-72
2023/05/08 10:04:00;;;;;;;28.67;16.27;;;26.20;97.70;;;;;;5034190;28;20112;-71
2023/05/08 10:06:27;;;;;;;28.58;14.20;;;25.80;98.10;;;;;;5034139;28;20171;-69
2023/05/08 10:09:06;;;;;;;26.95;14.55;;;25.50;98.50;;;;;;5033971;28;20032;-70
2023/05/08 10:11:32;;;;;;;30.33;16.75;;;25.70;98.60;;;;;;5033965;28;20026;-71
2023/05/08 10:13:58;;;;;;;31.38;16.42;;;26.20;98.40;;;;;;5027482;28;20112;-71
2023/05/08 10:16:27;;;;;;;30.95;16.83;;;26.70;97.50;;;;;;5018040;28;20530;-71
2023/05/08 10:18:59;;;;;;;31.02;15.90;;;26.60;97.50;;;;;;5013888;28;20103;-71
2023/05/08 10:21:28;;;;;;;30.17;16.92;;;26.60;97.50;;;;;;5014323;28;20088;-69
2023/05/08 10:23:56;;;;;;;30.90;16.50;;;26.60;97.30;;;;;;5014020;28;20045;-71
2023/05/08 10:26:29;;;;;;;31.05;16.80;;;26.60;97.30;;;;;;5017984;28;20133;-70
2023/05/08 10:29:02;;;;;;;32.40;16.67;;;26.60;97.30;;;;;;5019161;28;20030;-70
2023/05/08 10:31:29;;;;;;;31.98;17.15;;;27.00;97.30;;;;;;5014368;28;20026;-71
2023/05/08 10:33:59;;;;;;;32.38;18.77;;;27.70;96.40;;;;;;5013705;28;20033;-71
2023/05/08 10:36:27;;;;;;;32.03;17.48;;;28.00;95.80;;;;;;5013897;28;20086;-70
2023/05/08 10:38:53;;;;;;;29.75;16.98;;;27.90;95.80;;;;;;5013333;28;20048;-71
2023/05/08 10:41:20;;;;;;;29.75;16.75;;;27.90;95.80;;;;;;5013341;28;20395;-70
2023/05/08 10:43:47;;;;;;;30.55;16.73;;;27.80;95.70;;;;;;5013723;28;20030;-70
2023/05/08 10:46:36;;;;;;;31.17;17.05;;;27.60;95.60;;;;;;5013578;28;20038;-72
2023/05/08 10:49:23;;;;;;;29.50;16.50;;;27.40;96.00;;;;;;5013686;28;20026;-71
2023/05/08 10:52:10;;;;;;;29.10;17.17;;;27.40;96.10;;;;;;5013697;28;20462;-71
2023/05/08 10:55:05;;;;;;;26.23;15.00;;;27.60;95.80;;;;;;5013537;28;20042;-72
2023/05/08 10:57:30;;;;;;;27.13;14.90;;;27.70;95.60;;;;;;5013372;28;20034;-71
2023/05/08 10:59:56;;;;;;;26.45;15.02;;;27.90;95.20;;;;;;5020931;28;20048;-71
2023/05/08 11:02:30;;;;;;;26.10;14.38;;;28.00;95.20;;;;;;5019053;28;20386;-70
2023/05/08 11:05:15;;;;;;;27.38;13.75;;;28.30;94.60;;;;;;5013178;28;20060;-72
2023/05/08 11:07:58;;;;;;;24.65;13.63;;;28.60;94.40;;;;;;5013856;28;20057;-72
2023/05/08 11:10:31;;;;;;;26.15;13.68;;;29.60;93.60;;;;;;5012337;28;20117;-70
2023/05/08 11:12:58;;;;;;;23.60;14.05;;;30.30;92.70;;;;;;5013130;28;20041;-71
2023/05/08 11:15:38;;;;;;;24.70;14.90;;;31.20;92.60;;;;;;5024462;28;20100;-71
2023/05/08 11:18:10;;;;;;;23.15;13.45;;;32.00;91.20;;;;;;5012863;28;20088;-71
2023/05/08 11:20:40;;;;;;;22.80;14.02;;;32.70;90.40;;;;;;5012416;28;20045;-71
2023/05/08 11:23:23;;;;;;;22.58;13.77;;;33.20;89.30;;;;;;5013097;28;20091;-72
2023/05/08 11:26:13;;;;;;;23.88;14.35;;;33.50;87.00;;;;;;5012810;28;20048;-72
2023/05/08 11:28:54;;;;;;;24.45;14.90;;;33.70;85.80;;;;;;5012833;28;20028;-71
2023/05/08 11:31:20;;;;;;;24.98;15.50;;;33.80;84.90;;;;;;5012756;28;20022;-72
2023/05/08 11:33:45;;;;;;;24.23;15.20;;;33.80;84.30;;;;;;5012782;28;20026;-70
2023/05/08 11:36:21;;;;;;;24.95;15.77;;;33.80;84.50;;;;;;5012669;28;20058;-72
2023/05/08 11:39:11;;;;;;;23.00;15.18;;;33.80;84.40;;;;;;5012680;28;20044;-73
2023/05/08 11:41:38;;;;;;;25.13;16.75;;;33.50;83.80;;;;;;5012426;28;20397;-71
2023/05/08 11:44:03;;;;;;;25.98;16.83;;;33.00;84.70;;;;;;5012505;28;20364;-70
2023/05/08 11:46:50;;;;;;;26.92;16.67;;;32.20;85.40;;;;;;5023655;28;20052;-72
2023/05/08 11:49:17;;;;;;;25.95;15.95;;;31.60;86.10;;;;;;5031938;28;20052;-71
2023/05/08 11:51:48;;;;;;;25.08;15.45;;;31.30;87.40;;;;;;5032156;28;20051;-70
2023/05/08 11:54:18;;;;;;;24.88;16.23;;;31.00;87.60;;;;;;5035822;28;20070;-72
2023/05/08 11:56:48;;;;;;;26.08;16.45;;;31.20;87.40;;;;;;5023618;28;20074;-73
2023/05/08 11:59:15;;;;;;;25.20;16.27;;;31.50;87.00;;;;;;5015308;28;20065;-72
2023/05/08 12:01:40;;;;;;;25.58;17.13;;;31.70;86.70;;;;;;5020911;28;20566;-72
2023/05/08 12:04:09;;;;;;;25.50;16.20;;;31.70;86.30;;;;;;5041086;28;20108;-72
2023/05/08 12:06:39;;;;;;;24.73;15.88;;;31.60;86.50;;;;;;5051855;28;20384;-74
2023/05/08 12:09:16;;;;;;;24.45;15.52;;;31.20;86.40;;;;;;5052212;28;20086;-72
2023/05/08 12:11:44;;;;;;;26.13;15.60;;;30.80;87.60;;;;;;5052089;28;20480;-73
2023/05/08 12:14:12;;;;;;;22.83;15.02;;;30.70;87.80;;;;;;5045822;28;20454;-71
2023/05/08 12:16:38;;;;;;;23.15;14.70;;;30.50;87.60;;;;;;5031964;28;20072;-71
2023/05/08 12:19:11;;;;;;;24.42;14.93;;;30.40;88.00;;;;;;5033935;28;20029;-73
2023/05/08 12:21:37;;;;;;;25.75;15.80;;;30.40;88.20;;;;;;5035613;28;20477;-74
2023/05/08 12:24:09;;;;;;;24.83;15.70;;;30.30;88.00;;;;;;5037724;28;20036;-72
2023/05/08 12:26:36;;;;;;;24.75;15.30;;;30.30;88.00;;;;;;5027219;28;20021;-72
2023/05/08 12:29:05;;;;;;;24.65;14.55;;;30.40;88.60;;;;;;5033272;28;20474;-72
2023/05/08 12:31:31;;;;;;;21.90;13.57;;;30.80;87.30;;;;;;5033014;28;20017;-72
2023/05/08 12:33:57;;;;;;;24.05;14.20;;;30.90;86.70;;;;;;5033811;28;20492;-71
2023/05/08 12:36:23;;;;;;;23.65;15.18;;;31.10;86.40;;;;;;5033191;28;20046;-72
2023/05/08 12:38:50;;;;;;;24.13;14.90;;;31.00;86.60;;;;;;5035297;28;20029;-73
2023/05/08 12:41:22;;;;;;;24.98;16.50;;;31.10;87.00;;;;;;5030207;28;20034;-74
2023/05/08 12:43:48;;;;;;;23.38;14.98;;;31.10;86.40;;;;;;5030523;28;20017;-72
2023/05/08 12:46:16;;;;;;;24.50;15.35;;;30.90;86.60;;;;;;5021193;28;20033;-72
2023/05/08 12:48:42;;;;;;;23.17;15.10;;;30.60;87.00;;;;;;5029782;28;20022;-73
2023/05/08 12:51:10;;;;;;;24.02;15.75;;;30.30;87.30;;;;;;5015721;28;20112;-73
2023/05/08 12:53:36;;;;;;;24.80;15.82;;;30.10;87.90;;;;;;5029362;28;20119;-74
2023/05/08 12:56:03;;;;;;;24.98;15.43;;;29.80;88.50;;;;;;5041378;28;20037;-73
2023/05/08 12:58:31;;;;;;;24.52;15.80;;;29.70;88.70;;;;;;5034977;28;20057;-72
2023/05/08 13:01:09;;;;;;;27.95;16.50;;;29.60;88.80;;;;;;5034810;28;20049;-71
2023/05/08 13:03:35;;;;;;;26.42;16.45;;;29.50;89.30;;;;;;5035201;28;20029;-71
2023/05/08 13:06:00;;;;;;;26.17;16.08;;;29.50;89.50;;;;;;5034984;28;20024;-71
2023/05/08 13:08:33;;;;;;;26.67;17.63;;;29.50;89.80;;;;;;5035032;28;20029;-72
2023/05/08 13:10:59;;;;;;;27.13;16.92;;;29.60;89.90;;;;;;5034618;28;20029;-71